^^
Station Historical Data
Daily Summary for July 18, 2017 Units:  Both    English   Metric
« Previous Day
Next Day »
Daily Weekly Monthly Yearly Custom
  High: Low: Average:
Temperature: 78.3 °F /  25.7 °C 39.7 °F /  4.3 °C 57.5 °F /  14.2 °C
Dew Point: 30.2 °F /  -1 °C 21.6 °F /  -5.8 °C 25.4 °F /  -3.7 °C
Humidity: 56% 13% 32%
Wind Speed: 4.9mph /  7.9km/h - 0.4mph /  0.6km/h
Wind Gust: 8.0mph /  12.9km/h - -
Wind- - SSW
Pressure: 30.54 in /  1034.1 hPa 30.36 in /  1028 hPa -
Precipitation: 0.00 in /  0 mm    
Historical Graphs
 
 
Tabular Data for July 18, 2017
Time Temperature Dew Point Pressure Wind Wind Speed Wind Gust Humidity Rainfall Rate (Hourly) solar Conditions
00:03 50.2 °F /  10.1 °C 25.5 °F /  -3.6 °C 30.50in /  1032.7hPa ENE 2.0mph /  3.2km/h 6.0mph /  9.7km/h 38% 0.00in /  0mm 0.0 W/m2
00:09 50.0 °F /  10 °C 25.3 °F /  -3.7 °C 30.50in /  1032.7hPa Calm   3.0mph /  4.8km/h 38% 0.00in /  0mm 0.0 W/m2
00:15 49.8 °F /  9.9 °C 25.9 °F /  -3.4 °C 30.50in /  1032.7hPa ENE 4.9mph /  7.9km/h 5.0mph /  8km/h 39% 0.00in /  0mm 0.0 W/m2
00:21 49.6 °F /  9.8 °C 25.7 °F /  -3.5 °C 30.50in /  1032.7hPa Calm   1.0mph /  1.6km/h 39% 0.00in /  0mm 0.0 W/m2
00:27 49.3 °F /  9.6 °C 25.3 °F /  -3.7 °C 30.50in /  1032.7hPa Calm   1.0mph /  1.6km/h 39% 0.00in /  0mm 0.0 W/m2
00:33 48.6 °F /  9.2 °C 25.3 °F /  -3.7 °C 30.50in /  1032.7hPa Calm   1.0mph /  1.6km/h 40% 0.00in /  0mm 0.0 W/m2
00:39 48.0 °F /  8.9 °C 25.5 °F /  -3.6 °C 30.50in /  1032.7hPa Calm     41% 0.00in /  0mm 0.0 W/m2
00:45 47.7 °F /  8.7 °C 25.2 °F /  -3.8 °C 30.50in /  1032.7hPa Calm   2.0mph /  3.2km/h 41% 0.00in /  0mm 0.0 W/m2
00:51 47.1 °F /  8.4 °C 25.2 °F /  -3.8 °C 30.50in /  1032.7hPa ESE 2.0mph /  3.2km/h 2.0mph /  3.2km/h 42% 0.00in /  0mm 0.0 W/m2
00:57 46.9 °F /  8.3 °C 25.5 °F /  -3.6 °C 30.50in /  1032.7hPa Calm   1.0mph /  1.6km/h 43% 0.00in /  0mm 0.0 W/m2
01:03 46.9 °F /  8.3 °C 25.5 °F /  -3.6 °C 30.50in /  1032.7hPa Calm     43% 0.00in /  0mm 0.0 W/m2
01:09 46.6 °F /  8.1 °C 25.3 °F /  -3.7 °C 30.50in /  1032.7hPa Calm   2.0mph /  3.2km/h 43% 0.00in /  0mm 0.0 W/m2
01:15 46.2 °F /  7.9 °C 25.0 °F /  -3.9 °C 30.50in /  1032.7hPa Calm     43% 0.00in /  0mm 0.0 W/m2
01:21 46.0 °F /  7.8 °C 25.3 °F /  -3.7 °C 30.50in /  1032.7hPa East 0.9mph /  1.4km/h 1.0mph /  1.6km/h 44% 0.00in /  0mm 0.0 W/m2
01:27 45.9 °F /  7.7 °C 25.2 °F /  -3.8 °C 30.50in /  1032.7hPa Calm   1.0mph /  1.6km/h 44% 0.00in /  0mm 0.0 W/m2
01:33 45.7 °F /  7.6 °C 25.0 °F /  -3.9 °C 30.50in /  1032.7hPa Calm     44% 0.00in /  0mm 0.0 W/m2
01:40 45.5 °F /  7.5 °C 25.3 °F /  -3.7 °C 30.50in /  1032.7hPa Calm   1.0mph /  1.6km/h 45% 0.00in /  0mm 0.0 W/m2
01:46 45.1 °F /  7.3 °C 25.0 °F /  -3.9 °C 30.50in /  1032.7hPa Calm     45% 0.00in /  0mm 0.0 W/m2
01:52 45.0 °F /  7.2 °C 25.3 °F /  -3.7 °C 30.50in /  1032.7hPa Calm     46% 0.00in /  0mm 0.0 W/m2
01:58 44.6 °F /  7 °C 25.2 °F /  -3.8 °C 30.50in /  1032.7hPa Calm   1.0mph /  1.6km/h 46% 0.00in /  0mm 0.0 W/m2
02:04 44.2 °F /  6.8 °C 25.3 °F /  -3.7 °C 30.50in /  1032.7hPa Calm   1.0mph /  1.6km/h 47% 0.00in /  0mm 0.0 W/m2
02:10 44.1 °F /  6.7 °C 25.2 °F /  -3.8 °C 30.50in /  1032.7hPa Calm     47% 0.00in /  0mm 0.0 W/m2
02:16 43.9 °F /  6.6 °C 25.0 °F /  -3.9 °C 30.50in /  1032.7hPa Calm   3.0mph /  4.8km/h 47% 0.00in /  0mm 0.0 W/m2
02:22 43.7 °F /  6.5 °C 25.3 °F /  -3.7 °C 30.50in /  1032.7hPa Calm   2.0mph /  3.2km/h 48% 0.00in /  0mm 0.0 W/m2
02:28 43.5 °F /  6.4 °C 25.2 °F /  -3.8 °C 30.50in /  1032.7hPa Calm   1.0mph /  1.6km/h 48% 0.00in /  0mm 0.0 W/m2
02:34 43.5 °F /  6.4 °C 25.2 °F /  -3.8 °C 30.50in /  1032.7hPa Calm   3.0mph /  4.8km/h 48% 0.00in /  0mm 0.0 W/m2
02:41 43.5 °F /  6.4 °C 25.2 °F /  -3.8 °C 30.50in /  1032.7hPa Calm   3.0mph /  4.8km/h 48% 0.00in /  0mm 0.0 W/m2
02:47 43.5 °F /  6.4 °C 25.2 °F /  -3.8 °C 30.50in /  1032.7hPa Calm     48% 0.00in /  0mm 0.0 W/m2
02:53 43.3 °F /  6.3 °C 25.0 °F /  -3.9 °C 30.50in /  1032.7hPa Calm   1.0mph /  1.6km/h 48% 0.00in /  0mm 0.0 W/m2
02:59 43.3 °F /  6.3 °C 25.0 °F /  -3.9 °C 30.50in /  1032.7hPa Calm     48% 0.00in /  0mm 0.0 W/m2
03:05 43.2 °F /  6.2 °C 24.8 °F /  -4 °C 30.50in /  1032.7hPa Calm     48% 0.00in /  0mm 0.0 W/m2
03:11 43.2 °F /  6.2 °C 24.8 °F /  -4 °C 30.50in /  1032.7hPa Calm     48% 0.00in /  0mm 0.0 W/m2
03:17 43.0 °F /  6.1 °C 25.2 °F /  -3.8 °C 30.50in /  1032.7hPa Calm   1.0mph /  1.6km/h 49% 0.00in /  0mm 0.0 W/m2
03:23 43.0 °F /  6.1 °C 25.2 °F /  -3.8 °C 30.50in /  1032.7hPa Calm     49% 0.00in /  0mm 0.0 W/m2
03:29 43.0 °F /  6.1 °C 25.2 °F /  -3.8 °C 30.50in /  1032.7hPa Calm   1.0mph /  1.6km/h 49% 0.00in /  0mm 0.0 W/m2
03:35 42.8 °F /  6 °C 25.0 °F /  -3.9 °C 30.50in /  1032.7hPa Calm     49% 0.00in /  0mm 0.0 W/m2
03:41 42.6 °F /  5.9 °C 24.8 °F /  -4 °C 30.50in /  1032.7hPa Calm     49% 0.00in /  0mm 0.0 W/m2
03:48 42.6 °F /  5.9 °C 24.8 °F /  -4 °C 30.50in /  1032.7hPa ESE 2.0mph /  3.2km/h 3.0mph /  4.8km/h 49% 0.00in /  0mm 0.0 W/m2
03:54 42.6 °F /  5.9 °C 24.8 °F /  -4 °C 30.50in /  1032.7hPa Calm   1.0mph /  1.6km/h 49% 0.00in /  0mm 0.0 W/m2
04:00 42.4 °F /  5.8 °C 24.6 °F /  -4.1 °C 30.50in /  1032.7hPa Calm   3.0mph /  4.8km/h 49% 0.00in /  0mm 0.0 W/m2
04:06 42.3 °F /  5.7 °C 25.0 °F /  -3.9 °C 30.50in /  1032.7hPa Calm   1.0mph /  1.6km/h 50% 0.00in /  0mm 0.0 W/m2
04:12 42.3 °F /  5.7 °C 25.0 °F /  -3.9 °C 30.50in /  1032.7hPa Calm   1.0mph /  1.6km/h 50% 0.00in /  0mm 0.0 W/m2
04:18 42.1 °F /  5.6 °C 24.8 °F /  -4 °C 30.50in /  1032.7hPa Calm     50% 0.00in /  0mm 0.0 W/m2
04:24 42.1 °F /  5.6 °C 24.8 °F /  -4 °C 30.51in /  1033.1hPa Calm     50% 0.00in /  0mm 0.0 W/m2
04:30 41.9 °F /  5.5 °C 25.2 °F /  -3.8 °C 30.51in /  1033.1hPa Calm     51% 0.00in /  0mm 0.0 W/m2
04:36 41.7 °F /  5.4 °C 25.0 °F /  -3.9 °C 30.51in /  1033.1hPa Calm     51% 0.00in /  0mm 0.0 W/m2
04:42 41.5 °F /  5.3 °C 24.8 °F /  -4 °C 30.51in /  1033.1hPa East 0.9mph /  1.4km/h 1.0mph /  1.6km/h 51% 0.00in /  0mm 0.0 W/m2
04:48 41.4 °F /  5.2 °C 24.6 °F /  -4.1 °C 30.51in /  1033.1hPa Calm   1.0mph /  1.6km/h 51% 0.00in /  0mm 0.0 W/m2
04:54 41.4 °F /  5.2 °C 25.0 °F /  -3.9 °C 30.51in /  1033.1hPa Calm     52% 0.00in /  0mm 0.0 W/m2
05:00 41.4 °F /  5.2 °C 25.0 °F /  -3.9 °C 30.51in /  1033.1hPa Calm     52% 0.00in /  0mm 0.0 W/m2
05:06 41.4 °F /  5.2 °C 25.0 °F /  -3.9 °C 30.51in /  1033.1hPa Calm   2.0mph /  3.2km/h 52% 0.00in /  0mm 0.0 W/m2
05:13 41.2 °F /  5.1 °C 24.8 °F /  -4 °C 30.51in /  1033.1hPa Calm     52% 0.00in /  0mm 0.0 W/m2
05:19 41.2 °F /  5.1 °C 25.3 °F /  -3.7 °C 30.51in /  1033.1hPa Calm   1.0mph /  1.6km/h 53% 0.00in /  0mm 0.0 W/m2
05:25 41.0 °F /  5 °C 25.2 °F /  -3.8 °C 30.51in /  1033.1hPa Calm   1.0mph /  1.6km/h 53% 0.00in /  0mm 0.0 W/m2
05:31 41.2 °F /  5.1 °C 25.3 °F /  -3.7 °C 30.51in /  1033.1hPa Calm     53% 0.00in /  0mm 0.0 W/m2
05:37 41.2 °F /  5.1 °C 25.9 °F /  -3.4 °C 30.51in /  1033.1hPa Calm     54% 0.00in /  0mm 0.0 W/m2
05:43 40.8 °F /  4.9 °C 25.5 °F /  -3.6 °C 30.51in /  1033.1hPa Calm     54% 0.00in /  0mm 0.0 W/m2
05:49 40.6 °F /  4.8 °C 24.8 °F /  -4 °C 30.51in /  1033.1hPa Calm     53% 0.00in /  0mm 0.0 W/m2
05:55 39.9 °F /  4.4 °C 24.6 °F /  -4.1 °C 30.51in /  1033.1hPa Calm     54% 0.00in /  0mm 0.0 W/m2
06:01 39.7 °F /  4.3 °C 25.0 °F /  -3.9 °C 30.51in /  1033.1hPa Calm   1.0mph /  1.6km/h 55% 0.00in /  0mm 0.0 W/m2
06:07 39.7 °F /  4.3 °C 25.3 °F /  -3.7 °C 30.51in /  1033.1hPa Calm     56% 0.00in /  0mm 0.0 W/m2
06:13 39.7 °F /  4.3 °C 25.3 °F /  -3.7 °C 30.51in /  1033.1hPa Calm     56% 0.00in /  0mm 0.0 W/m2
06:20 39.9 °F /  4.4 °C 25.5 °F /  -3.6 °C 30.51in /  1033.1hPa Calm   2.0mph /  3.2km/h 56% 0.00in /  0mm 0.0 W/m2
06:26 40.5 °F /  4.7 °C 25.5 °F /  -3.6 °C 30.51in /  1033.1hPa Calm   1.0mph /  1.6km/h 55% 0.00in /  0mm 0.0 W/m2
06:32 40.5 °F /  4.7 °C 25.5 °F /  -3.6 °C 30.51in /  1033.1hPa Calm     55% 0.00in /  0mm 0.0 W/m2
06:38 40.5 °F /  4.7 °C 25.5 °F /  -3.6 °C 30.51in /  1033.1hPa Calm     55% 0.00in /  0mm 5.0 W/m2
06:44 40.5 °F /  4.7 °C 25.5 °F /  -3.6 °C 30.52in /  1033.4hPa Calm     55% 0.00in /  0mm 7.0 W/m2
06:50 40.5 °F /  4.7 °C 25.5 °F /  -3.6 °C 30.52in /  1033.4hPa Calm     55% 0.00in /  0mm 9.0 W/m2
06:56 40.5 °F /  4.7 °C 25.5 °F /  -3.6 °C 30.52in /  1033.4hPa Calm     55% 0.00in /  0mm 11.0 W/m2
07:04 40.6 °F /  4.8 °C 25.7 °F /  -3.5 °C 30.52in /  1033.4hPa ESE 0.9mph /  1.4km/h 1.0mph /  1.6km/h 55% 0.00in /  0mm 12.0 W/m2
07:10 40.8 °F /  4.9 °C 25.9 °F /  -3.4 °C 30.52in /  1033.4hPa Calm     55% 0.00in /  0mm 14.0 W/m2
07:16 41.2 °F /  5.1 °C 25.9 °F /  -3.4 °C 30.52in /  1033.4hPa Calm     54% 0.00in /  0mm 16.0 W/m2
07:22 41.7 °F /  5.4 °C 26.2 °F /  -3.2 °C 30.52in /  1033.4hPa Calm     54% 0.00in /  0mm 16.0 W/m2
07:29 42.3 °F /  5.7 °C 26.8 °F /  -2.9 °C 30.53in /  1033.7hPa Calm     54% 0.00in /  0mm 18.0 W/m2
07:35 43.0 °F /  6.1 °C 27.0 °F /  -2.8 °C 30.53in /  1033.7hPa Calm     53% 0.00in /  0mm 19.0 W/m2
07:41 43.7 °F /  6.5 °C 27.1 °F /  -2.7 °C 30.53in /  1033.7hPa Calm   1.0mph /  1.6km/h 52% 0.00in /  0mm 21.0 W/m2
07:47 44.4 °F /  6.9 °C 27.5 °F /  -2.5 °C 30.53in /  1033.7hPa Calm   2.0mph /  3.2km/h 51% 0.00in /  0mm 21.0 W/m2
07:53 45.1 °F /  7.3 °C 27.7 °F /  -2.4 °C 30.53in /  1033.7hPa Calm   1.0mph /  1.6km/h 50% 0.00in /  0mm 23.0 W/m2
07:59 46.0 °F /  7.8 °C 27.9 °F /  -2.3 °C 30.53in /  1033.7hPa Calm   2.0mph /  3.2km/h 49% 0.00in /  0mm 23.0 W/m2
08:05 46.9 °F /  8.3 °C 28.2 °F /  -2.1 °C 30.53in /  1033.7hPa Calm   1.0mph /  1.6km/h 48% 0.00in /  0mm 25.0 W/m2
08:12 48.4 °F /  9.1 °C 29.1 °F /  -1.6 °C 30.53in /  1033.7hPa Calm     47% 0.00in /  0mm 33.0 W/m2
08:18 50.7 °F /  10.4 °C 29.1 °F /  -1.6 °C 30.54in /  1034.1hPa Calm   1.0mph /  1.6km/h 43% 0.00in /  0mm 339.0 W/m2
08:20 51.6 °F /  10.9 °C 29.3 °F /  -1.5 °C 30.53in /  1033.7hPa Calm   1.0mph /  1.6km/h 42% 0.00in /  0mm 346.0 W/m2
08:26 54.0 °F /  12.2 °C 29.5 °F /  -1.4 °C 30.53in /  1033.7hPa Calm   1.0mph /  1.6km/h 39% 0.00in /  0mm 362.0 W/m2
08:32 55.8 °F /  13.2 °C 29.8 °F /  -1.2 °C 30.54in /  1034.1hPa Calm   1.0mph /  1.6km/h 37% 0.00in /  0mm 385.0 W/m2
08:38 57.0 °F /  13.9 °C 29.7 °F /  -1.3 °C 30.53in /  1033.7hPa Calm   1.0mph /  1.6km/h 35% 0.00in /  0mm 408.0 W/m2
08:44 58.8 °F /  14.9 °C 28.9 °F /  -1.7 °C 30.53in /  1033.7hPa Calm   1.0mph /  1.6km/h 32% 0.00in /  0mm 427.0 W/m2
08:50 60.3 °F /  15.7 °C 29.5 °F /  -1.4 °C 30.53in /  1033.7hPa Calm   1.0mph /  1.6km/h 31% 0.00in /  0mm 443.0 W/m2
08:57 61.3 °F /  16.3 °C 28.8 °F /  -1.8 °C 30.53in /  1033.7hPa Calm   2.0mph /  3.2km/h 29% 0.00in /  0mm 462.0 W/m2
09:03 62.1 °F /  16.7 °C 30.2 °F /  -1 °C 30.53in /  1033.7hPa Calm     30% 0.00in /  0mm 480.0 W/m2
09:09 62.8 °F /  17.1 °C 29.1 °F /  -1.6 °C 30.53in /  1033.7hPa Calm   1.0mph /  1.6km/h 28% 0.00in /  0mm 499.0 W/m2
09:15 62.8 °F /  17.1 °C 28.2 °F /  -2.1 °C 30.53in /  1033.7hPa Calm     27% 0.00in /  0mm 513.0 W/m2
09:21 63.0 °F /  17.2 °C 28.4 °F /  -2 °C 30.53in /  1033.7hPa Calm     27% 0.00in /  0mm 529.0 W/m2
09:27 63.9 °F /  17.7 °C 28.2 °F /  -2.1 °C 30.53in /  1033.7hPa Calm   1.0mph /  1.6km/h 26% 0.00in /  0mm 543.0 W/m2
09:33 64.8 °F /  18.2 °C 29.1 °F /  -1.6 °C 30.53in /  1033.7hPa Calm     26% 0.00in /  0mm 557.0 W/m2
09:39 64.9 °F /  18.3 °C 29.3 °F /  -1.5 °C 30.52in /  1033.4hPa Calm   1.0mph /  1.6km/h 26% 0.00in /  0mm 571.0 W/m2
09:46 64.8 °F /  18.2 °C 29.1 °F /  -1.6 °C 30.52in /  1033.4hPa SSW 0.9mph /  1.4km/h 3.0mph /  4.8km/h 26% 0.00in /  0mm 585.0 W/m2
09:52 64.6 °F /  18.1 °C 28.9 °F /  -1.7 °C 30.52in /  1033.4hPa Calm     26% 0.00in /  0mm 599.0 W/m2
09:58 65.1 °F /  18.4 °C 29.3 °F /  -1.5 °C 30.52in /  1033.4hPa NNW 0.9mph /  1.4km/h 1.0mph /  1.6km/h 26% 0.00in /  0mm 610.0 W/m2
10:04 65.7 °F /  18.7 °C 28.9 °F /  -1.7 °C 30.52in /  1033.4hPa NNE 0.9mph /  1.4km/h 4.0mph /  6.4km/h 25% 0.00in /  0mm 624.0 W/m2
10:10 66.6 °F /  19.2 °C 28.6 °F /  -1.9 °C 30.51in /  1033.1hPa NNW 2.0mph /  3.2km/h 2.0mph /  3.2km/h 24% 0.00in /  0mm 633.0 W/m2
10:16 67.3 °F /  19.6 °C 29.3 °F /  -1.5 °C 30.51in /  1033.1hPa Calm   3.0mph /  4.8km/h 24% 0.00in /  0mm 643.0 W/m2
10:22 67.8 °F /  19.9 °C 28.6 °F /  -1.9 °C 30.51in /  1033.1hPa Calm   4.0mph /  6.4km/h 23% 0.00in /  0mm 650.0 W/m2
10:28 68.0 °F /  20 °C 28.8 °F /  -1.8 °C 30.51in /  1033.1hPa West 0.9mph /  1.4km/h 2.0mph /  3.2km/h 23% 0.00in /  0mm 659.0 W/m2
10:34 68.0 °F /  20 °C 28.8 °F /  -1.8 °C 30.50in /  1032.7hPa Calm   1.0mph /  1.6km/h 23% 0.00in /  0mm 671.0 W/m2
10:41 68.4 °F /  20.2 °C 29.1 °F /  -1.6 °C 30.50in /  1032.7hPa Calm   1.0mph /  1.6km/h 23% 0.00in /  0mm 675.0 W/m2
10:47 69.1 °F /  20.6 °C 28.6 °F /  -1.9 °C 30.50in /  1032.7hPa North 2.0mph /  3.2km/h 4.0mph /  6.4km/h 22% 0.00in /  0mm 684.0 W/m2
10:53 69.1 °F /  20.6 °C 28.6 °F /  -1.9 °C 30.50in /  1032.7hPa Calm   2.0mph /  3.2km/h 22% 0.00in /  0mm 689.0 W/m2
10:59 68.7 °F /  20.4 °C 28.4 °F /  -2 °C 30.49in /  1032.4hPa Calm   3.0mph /  4.8km/h 22% 0.00in /  0mm 694.0 W/m2
11:05 68.7 °F /  20.4 °C 28.4 °F /  -2 °C 30.49in /  1032.4hPa SSW 0.9mph /  1.4km/h 4.0mph /  6.4km/h 22% 0.00in /  0mm 701.0 W/m2
11:11 68.4 °F /  20.2 °C 28.0 °F /  -2.2 °C 30.49in /  1032.4hPa Calm   1.0mph /  1.6km/h 22% 0.00in /  0mm 710.0 W/m2
11:17 68.4 °F /  20.2 °C 28.0 °F /  -2.2 °C 30.48in /  1032.1hPa Calm   2.0mph /  3.2km/h 22% 0.00in /  0mm 715.0 W/m2
11:23 68.4 °F /  20.2 °C 28.0 °F /  -2.2 °C 30.48in /  1032.1hPa Calm   3.0mph /  4.8km/h 22% 0.00in /  0mm 721.0 W/m2
11:30 68.4 °F /  20.2 °C 28.0 °F /  -2.2 °C 30.48in /  1032.1hPa Calm     22% 0.00in /  0mm 722.0 W/m2
11:36 68.5 °F /  20.3 °C 28.2 °F /  -2.1 °C 30.47in /  1031.7hPa SW 4.0mph /  6.4km/h 4.0mph /  6.4km/h 22% 0.00in /  0mm 728.0 W/m2
11:42 68.9 °F /  20.5 °C 28.4 °F /  -2 °C 30.47in /  1031.7hPa Calm   1.0mph /  1.6km/h 22% 0.00in /  0mm 728.0 W/m2
11:48 69.6 °F /  20.9 °C 27.9 °F /  -2.3 °C 30.47in /  1031.7hPa West 2.0mph /  3.2km/h 5.0mph /  8km/h 21% 0.00in /  0mm 729.0 W/m2
11:54 70.0 °F /  21.1 °C 28.2 °F /  -2.1 °C 30.46in /  1031.4hPa WSW 0.9mph /  1.4km/h 3.0mph /  4.8km/h 21% 0.00in /  0mm 733.0 W/m2
12:00 70.2 °F /  21.2 °C 27.1 °F /  -2.7 °C 30.45in /  1031hPa Calm   1.0mph /  1.6km/h 20% 0.00in /  0mm 726.0 W/m2
12:06 70.3 °F /  21.3 °C 27.3 °F /  -2.6 °C 30.45in /  1031hPa NW 2.0mph /  3.2km/h 3.0mph /  4.8km/h 20% 0.00in /  0mm 728.0 W/m2
12:12 71.1 °F /  21.7 °C 28.0 °F /  -2.2 °C 30.45in /  1031hPa Calm   3.0mph /  4.8km/h 20% 0.00in /  0mm 726.0 W/m2
12:19 71.4 °F /  21.9 °C 28.2 °F /  -2.1 °C 30.44in /  1030.7hPa Calm   1.0mph /  1.6km/h 20% 0.00in /  0mm 722.0 W/m2
12:25 72.3 °F /  22.4 °C 27.7 °F /  -2.4 °C 30.44in /  1030.7hPa WSW 2.0mph /  3.2km/h 3.0mph /  4.8km/h 19% 0.00in /  0mm 717.0 W/m2
12:31 72.9 °F /  22.7 °C 27.0 °F /  -2.8 °C 30.44in /  1030.7hPa Calm   6.0mph /  9.7km/h 18% 0.00in /  0mm 715.0 W/m2
12:37 73.2 °F /  22.9 °C 28.4 °F /  -2 °C 30.43in /  1030.4hPa NW 0.9mph /  1.4km/h 1.0mph /  1.6km/h 19% 0.00in /  0mm 712.0 W/m2
12:43 73.8 °F /  23.2 °C 28.9 °F /  -1.7 °C 30.43in /  1030.4hPa NE 0.9mph /  1.4km/h 1.0mph /  1.6km/h 19% 0.00in /  0mm 707.0 W/m2
12:49 74.7 °F /  23.7 °C 27.0 °F /  -2.8 °C 30.43in /  1030.4hPa Calm   2.0mph /  3.2km/h 17% 0.00in /  0mm 700.0 W/m2
12:55 75.0 °F /  23.9 °C 27.3 °F /  -2.6 °C 30.42in /  1030hPa WSW 0.9mph /  1.4km/h 2.0mph /  3.2km/h 17% 0.00in /  0mm 689.0 W/m2
13:02 75.2 °F /  24 °C 25.9 °F /  -3.4 °C 30.42in /  1030hPa NW 2.9mph /  4.7km/h 3.0mph /  4.8km/h 16% 0.00in /  0mm 682.0 W/m2
13:10 75.6 °F /  24.2 °C 26.2 °F /  -3.2 °C 30.41in /  1029.7hPa NNE 2.9mph /  4.7km/h 4.0mph /  6.4km/h 16% 0.00in /  0mm 673.0 W/m2
13:16 75.9 °F /  24.4 °C 26.4 °F /  -3.1 °C 30.41in /  1029.7hPa NNW 0.9mph /  1.4km/h 4.0mph /  6.4km/h 16% 0.00in /  0mm 664.0 W/m2
13:22 76.1 °F /  24.5 °C 25.2 °F /  -3.8 °C 30.40in /  1029.3hPa North 0.9mph /  1.4km/h 3.0mph /  4.8km/h 15% 0.00in /  0mm 650.0 W/m2
13:27 76.5 °F /  24.7 °C 27.0 °F /  -2.8 °C 30.40in /  1029.3hPa NW 2.9mph /  4.7km/h 5.0mph /  8km/h 16% 0.00in /  0mm 643.0 W/m2
13:32 76.6 °F /  24.8 °C 25.5 °F /  -3.6 °C 30.40in /  1029.3hPa West 0.9mph /  1.4km/h 2.0mph /  3.2km/h 15% 0.00in /  0mm 633.0 W/m2
13:38 76.8 °F /  24.9 °C 24.1 °F /  -4.4 °C 30.40in /  1029.3hPa Calm   3.0mph /  4.8km/h 14% 0.00in /  0mm 622.0 W/m2
13:45 76.8 °F /  24.9 °C 25.7 °F /  -3.5 °C 30.39in /  1029hPa Calm   3.0mph /  4.8km/h 15% 0.00in /  0mm 612.0 W/m2
13:51 77.0 °F /  25 °C 25.9 °F /  -3.4 °C 30.39in /  1029hPa NNW 2.9mph /  4.7km/h 4.0mph /  6.4km/h 15% 0.00in /  0mm 599.0 W/m2
13:57 77.4 °F /  25.2 °C 24.4 °F /  -4.2 °C 30.39in /  1029hPa Calm   2.0mph /  3.2km/h 14% 0.00in /  0mm 585.0 W/m2
14:03 77.5 °F /  25.3 °C 24.6 °F /  -4.1 °C 30.39in /  1029hPa NNW 2.9mph /  4.7km/h 5.0mph /  8km/h 14% 0.00in /  0mm 573.0 W/m2
14:09 77.7 °F /  25.4 °C 24.8 °F /  -4 °C 30.39in /  1029hPa NNW 0.9mph /  1.4km/h 3.0mph /  4.8km/h 14% 0.00in /  0mm 559.0 W/m2
14:15 77.9 °F /  25.5 °C 24.8 °F /  -4 °C 30.38in /  1028.7hPa SW 2.0mph /  3.2km/h 5.0mph /  8km/h 14% 0.00in /  0mm 541.0 W/m2
14:21 77.7 °F /  25.4 °C 24.8 °F /  -4 °C 30.38in /  1028.7hPa West 0.9mph /  1.4km/h 1.0mph /  1.6km/h 14% 0.00in /  0mm 527.0 W/m2
14:27 77.5 °F /  25.3 °C 24.6 °F /  -4.1 °C 30.38in /  1028.7hPa Calm   2.0mph /  3.2km/h 14% 0.00in /  0mm 512.0 W/m2
14:34 77.5 °F /  25.3 °C 24.6 °F /  -4.1 °C 30.37in /  1028.3hPa NNW 2.0mph /  3.2km/h 3.0mph /  4.8km/h 14% 0.00in /  0mm 494.0 W/m2
14:40 77.7 °F /  25.4 °C 24.8 °F /  -4 °C 30.37in /  1028.3hPa NW 2.0mph /  3.2km/h 5.0mph /  8km/h 14% 0.00in /  0mm 478.0 W/m2
14:46 78.1 °F /  25.6 °C 25.0 °F /  -3.9 °C 30.37in /  1028.3hPa Calm   1.0mph /  1.6km/h 14% 0.00in /  0mm 462.0 W/m2
14:52 78.3 °F /  25.7 °C 25.2 °F /  -3.8 °C 30.37in /  1028.3hPa NNE 2.9mph /  4.7km/h 4.0mph /  6.4km/h 14% 0.00in /  0mm 446.0 W/m2
14:58 78.3 °F /  25.7 °C 25.2 °F /  -3.8 °C 30.37in /  1028.3hPa Calm   3.0mph /  4.8km/h 14% 0.00in /  0mm 429.0 W/m2
15:04 78.3 °F /  25.7 °C 23.4 °F /  -4.8 °C 30.37in /  1028.3hPa NE 2.9mph /  4.7km/h 4.0mph /  6.4km/h 13% 0.00in /  0mm 411.0 W/m2
15:10 78.3 °F /  25.7 °C 25.2 °F /  -3.8 °C 30.37in /  1028.3hPa West 0.9mph /  1.4km/h 2.0mph /  3.2km/h 14% 0.00in /  0mm 392.0 W/m2
15:16 78.3 °F /  25.7 °C 25.2 °F /  -3.8 °C 30.36in /  1028hPa WSW 2.0mph /  3.2km/h 3.0mph /  4.8km/h 14% 0.00in /  0mm 369.0 W/m2
15:22 77.7 °F /  25.4 °C 24.8 °F /  -4 °C 30.36in /  1028hPa NNW 2.9mph /  4.7km/h 3.0mph /  4.8km/h 14% 0.00in /  0mm 350.0 W/m2
15:28 77.4 °F /  25.2 °C 24.4 °F /  -4.2 °C 30.36in /  1028hPa NW 0.9mph /  1.4km/h 1.0mph /  1.6km/h 14% 0.00in /  0mm 330.0 W/m2
15:35 77.2 °F /  25.1 °C 24.3 °F /  -4.3 °C 30.36in /  1028hPa NNW 0.9mph /  1.4km/h 3.0mph /  4.8km/h 14% 0.00in /  0mm 207.0 W/m2
15:41 76.6 °F /  24.8 °C 25.5 °F /  -3.6 °C 30.36in /  1028hPa Calm   1.0mph /  1.6km/h 15% 0.00in /  0mm 46.0 W/m2
15:47 76.5 °F /  24.7 °C 25.3 °F /  -3.7 °C 30.36in /  1028hPa NNE 0.9mph /  1.4km/h 2.0mph /  3.2km/h 15% 0.00in /  0mm 42.0 W/m2
15:53 76.3 °F /  24.6 °C 25.2 °F /  -3.8 °C 30.37in /  1028.3hPa NNW 4.0mph /  6.4km/h 4.0mph /  6.4km/h 15% 0.00in /  0mm 40.0 W/m2
15:59 75.9 °F /  24.4 °C 25.0 °F /  -3.9 °C 30.37in /  1028.3hPa Calm   1.0mph /  1.6km/h 15% 0.00in /  0mm 37.0 W/m2
16:05 75.6 °F /  24.2 °C 26.2 °F /  -3.2 °C 30.37in /  1028.3hPa Calm   2.0mph /  3.2km/h 16% 0.00in /  0mm 35.0 W/m2
16:11 75.0 °F /  23.9 °C 25.7 °F /  -3.5 °C 30.37in /  1028.3hPa Calm   1.0mph /  1.6km/h 16% 0.00in /  0mm 32.0 W/m2
16:18 74.7 °F /  23.7 °C 25.5 °F /  -3.6 °C 30.37in /  1028.3hPa Calm   1.0mph /  1.6km/h 16% 0.00in /  0mm 28.0 W/m2
16:24 74.3 °F /  23.5 °C 26.6 °F /  -3 °C 30.37in /  1028.3hPa Calm     17% 0.00in /  0mm 25.0 W/m2
16:30 73.9 °F /  23.3 °C 25.0 °F /  -3.9 °C 30.37in /  1028.3hPa Calm     16% 0.00in /  0mm 23.0 W/m2
16:36 73.6 °F /  23.1 °C 27.5 °F /  -2.5 °C 30.38in /  1028.7hPa Calm     18% 0.00in /  0mm 21.0 W/m2
16:42 73.0 °F /  22.8 °C 27.0 °F /  -2.8 °C 30.38in /  1028.7hPa Calm   1.0mph /  1.6km/h 18% 0.00in /  0mm 19.0 W/m2
16:48 72.7 °F /  22.6 °C 28.0 °F /  -2.2 °C 30.38in /  1028.7hPa Calm     19% 0.00in /  0mm 19.0 W/m2
16:54 72.0 °F /  22.2 °C 28.8 °F /  -1.8 °C 30.38in /  1028.7hPa Calm     20% 0.00in /  0mm 18.0 W/m2
17:00 71.2 °F /  21.8 °C 28.0 °F /  -2.2 °C 30.38in /  1028.7hPa Calm     20% 0.00in /  0mm 14.0 W/m2
17:07 70.5 °F /  21.4 °C 25.0 °F /  -3.9 °C 30.38in /  1028.7hPa Calm   1.0mph /  1.6km/h 18% 0.00in /  0mm 12.0 W/m2
17:13 70.2 °F /  21.2 °C 24.6 °F /  -4.1 °C 30.39in /  1029hPa Calm     18% 0.00in /  0mm 9.0 W/m2
17:19 69.6 °F /  20.9 °C 25.5 °F /  -3.6 °C 30.39in /  1029hPa Calm     19% 0.00in /  0mm 7.0 W/m2
17:25 69.1 °F /  20.6 °C 25.2 °F /  -3.8 °C 30.39in /  1029hPa Calm   1.0mph /  1.6km/h 19% 0.00in /  0mm 0.0 W/m2
17:31 68.4 °F /  20.2 °C 23.2 °F /  -4.9 °C 30.40in /  1029.3hPa SSE 2.9mph /  4.7km/h 8.0mph /  12.9km/h 18% 0.00in /  0mm 0.0 W/m2
17:37 68.4 °F /  20.2 °C 24.4 °F /  -4.2 °C 30.40in /  1029.3hPa SE 2.9mph /  4.7km/h 3.0mph /  4.8km/h 19% 0.00in /  0mm 0.0 W/m2
17:43 68.0 °F /  20 °C 22.8 °F /  -5.1 °C 30.40in /  1029.3hPa Calm   3.0mph /  4.8km/h 18% 0.00in /  0mm 0.0 W/m2
17:50 67.6 °F /  19.8 °C 22.6 °F /  -5.2 °C 30.41in /  1029.7hPa SSE 2.9mph /  4.7km/h 3.0mph /  4.8km/h 18% 0.00in /  0mm 0.0 W/m2
17:56 67.5 °F /  19.7 °C 23.7 °F /  -4.6 °C 30.41in /  1029.7hPa Calm   2.0mph /  3.2km/h 19% 0.00in /  0mm 0.0 W/m2
18:08 66.4 °F /  19.1 °C 24.1 °F /  -4.4 °C 30.41in /  1029.7hPa Calm   1.0mph /  1.6km/h 20% 0.00in /  0mm 0.0 W/m2
18:14 65.7 °F /  18.7 °C 23.5 °F /  -4.7 °C 30.42in /  1030hPa Calm   1.0mph /  1.6km/h 20% 0.00in /  0mm 0.0 W/m2
18:20 64.9 °F /  18.3 °C 22.8 °F /  -5.1 °C 30.42in /  1030hPa Calm     20% 0.00in /  0mm 0.0 W/m2
18:26 64.2 °F /  17.9 °C 22.3 °F /  -5.4 °C 30.42in /  1030hPa Calm     20% 0.00in /  0mm 0.0 W/m2
18:32 63.7 °F /  17.6 °C 24.1 °F /  -4.4 °C 30.43in /  1030.4hPa Calm     22% 0.00in /  0mm 0.0 W/m2
18:38 62.8 °F /  17.1 °C 23.4 °F /  -4.8 °C 30.43in /  1030.4hPa Calm     22% 0.00in /  0mm 0.0 W/m2
18:45 62.1 °F /  16.7 °C 23.9 °F /  -4.5 °C 30.43in /  1030.4hPa Calm     23% 0.00in /  0mm 0.0 W/m2
18:51 61.3 °F /  16.3 °C 24.3 °F /  -4.3 °C 30.43in /  1030.4hPa Calm     24% 0.00in /  0mm 0.0 W/m2
18:55 60.8 °F /  16 °C 23.7 °F /  -4.6 °C 30.44in /  1030.7hPa Calm     24% 0.00in /  0mm 0.0 W/m2
19:01 60.3 °F /  15.7 °C 23.4 °F /  -4.8 °C 30.44in /  1030.7hPa Calm     24% 0.00in /  0mm 0.0 W/m2
19:07 59.5 °F /  15.3 °C 23.7 °F /  -4.6 °C 30.44in /  1030.7hPa Calm     25% 0.00in /  0mm 0.0 W/m2
19:13 59.0 °F /  15 °C 24.1 °F /  -4.4 °C 30.44in /  1030.7hPa Calm     26% 0.00in /  0mm 0.0 W/m2
19:19 58.5 °F /  14.7 °C 23.7 °F /  -4.6 °C 30.44in /  1030.7hPa Calm     26% 0.00in /  0mm 0.0 W/m2
19:26 57.9 °F /  14.4 °C 23.2 °F /  -4.9 °C 30.44in /  1030.7hPa Calm   1.0mph /  1.6km/h 26% 0.00in /  0mm 0.0 W/m2
19:32 57.6 °F /  14.2 °C 23.0 °F /  -5 °C 30.44in /  1030.7hPa Calm   2.0mph /  3.2km/h 26% 0.00in /  0mm 0.0 W/m2
19:38 57.4 °F /  14.1 °C 22.8 °F /  -5.1 °C 30.44in /  1030.7hPa Calm     26% 0.00in /  0mm 0.0 W/m2
19:44 57.0 °F /  13.9 °C 22.5 °F /  -5.3 °C 30.44in /  1030.7hPa Calm     26% 0.00in /  0mm 0.0 W/m2
19:50 56.8 °F /  13.8 °C 23.2 °F /  -4.9 °C 30.44in /  1030.7hPa Calm     27% 0.00in /  0mm 0.0 W/m2
19:56 56.5 °F /  13.6 °C 22.8 °F /  -5.1 °C 30.44in /  1030.7hPa Calm   1.0mph /  1.6km/h 27% 0.00in /  0mm 0.0 W/m2
20:02 56.1 °F /  13.4 °C 22.6 °F /  -5.2 °C 30.45in /  1031hPa Calm     27% 0.00in /  0mm 0.0 W/m2
20:08 55.9 °F /  13.3 °C 23.4 °F /  -4.8 °C 30.45in /  1031hPa Calm     28% 0.00in /  0mm 0.0 W/m2
20:15 55.8 °F /  13.2 °C 23.2 °F /  -4.9 °C 30.45in /  1031hPa Calm     28% 0.00in /  0mm 0.0 W/m2
20:21 55.2 °F /  12.9 °C 23.5 °F /  -4.7 °C 30.45in /  1031hPa Calm     29% 0.00in /  0mm 0.0 W/m2
20:27 55.0 °F /  12.8 °C 22.5 °F /  -5.3 °C 30.45in /  1031hPa Calm     28% 0.00in /  0mm 0.0 W/m2
20:33 54.7 °F /  12.6 °C 22.3 °F /  -5.4 °C 30.45in /  1031hPa Calm   2.0mph /  3.2km/h 28% 0.00in /  0mm 0.0 W/m2
20:39 54.7 °F /  12.6 °C 22.3 °F /  -5.4 °C 30.45in /  1031hPa Calm     28% 0.00in /  0mm 0.0 W/m2
20:45 54.5 °F /  12.5 °C 22.8 °F /  -5.1 °C 30.45in /  1031hPa Calm   3.0mph /  4.8km/h 29% 0.00in /  0mm 0.0 W/m2
20:51 54.5 °F /  12.5 °C 22.8 °F /  -5.1 °C 30.45in /  1031hPa Calm   1.0mph /  1.6km/h 29% 0.00in /  0mm 0.0 W/m2
20:57 54.3 °F /  12.4 °C 22.6 °F /  -5.2 °C 30.45in /  1031hPa ENE 0.9mph /  1.4km/h 3.0mph /  4.8km/h 29% 0.00in /  0mm 0.0 W/m2
21:04 54.1 °F /  12.3 °C 22.6 °F /  -5.2 °C 30.45in /  1031hPa Calm   2.0mph /  3.2km/h 29% 0.00in /  0mm 0.0 W/m2
21:10 54.1 °F /  12.3 °C 22.6 °F /  -5.2 °C 30.45in /  1031hPa Calm   1.0mph /  1.6km/h 29% 0.00in /  0mm 0.0 W/m2
21:16 54.1 °F /  12.3 °C 22.6 °F /  -5.2 °C 30.45in /  1031hPa Calm     29% 0.00in /  0mm 0.0 W/m2
21:22 54.1 °F /  12.3 °C 22.6 °F /  -5.2 °C 30.45in /  1031hPa Calm     29% 0.00in /  0mm 0.0 W/m2
21:28 54.1 °F /  12.3 °C 22.6 °F /  -5.2 °C 30.45in /  1031hPa Calm     29% 0.00in /  0mm 0.0 W/m2
21:34 54.0 °F /  12.2 °C 22.5 °F /  -5.3 °C 30.45in /  1031hPa Calm     29% 0.00in /  0mm 0.0 W/m2
21:40 53.8 °F /  12.1 °C 22.3 °F /  -5.4 °C 30.45in /  1031hPa Calm   2.0mph /  3.2km/h 29% 0.00in /  0mm 0.0 W/m2
21:47 53.4 °F /  11.9 °C 21.9 °F /  -5.6 °C 30.45in /  1031hPa Calm     29% 0.00in /  0mm 0.0 W/m2
21:53 53.2 °F /  11.8 °C 22.6 °F /  -5.2 °C 30.45in /  1031hPa Calm   3.0mph /  4.8km/h 30% 0.00in /  0mm 0.0 W/m2
21:59 53.1 °F /  11.7 °C 22.5 °F /  -5.3 °C 30.45in /  1031hPa Calm     30% 0.00in /  0mm 0.0 W/m2
22:05 53.1 °F /  11.7 °C 22.5 °F /  -5.3 °C 30.45in /  1031hPa Calm     30% 0.00in /  0mm 0.0 W/m2
22:11 52.9 °F /  11.6 °C 22.3 °F /  -5.4 °C 30.45in /  1031hPa Calm     30% 0.00in /  0mm 0.0 W/m2
22:17 52.9 °F /  11.6 °C 22.3 °F /  -5.4 °C 30.45in /  1031hPa Calm   3.0mph /  4.8km/h 30% 0.00in /  0mm 0.0 W/m2
22:23 52.5 °F /  11.4 °C 21.9 °F /  -5.6 °C 30.45in /  1031hPa Calm   3.0mph /  4.8km/h 30% 0.00in /  0mm 0.0 W/m2
22:30 52.7 °F /  11.5 °C 22.1 °F /  -5.5 °C 30.45in /  1031hPa Calm   1.0mph /  1.6km/h 30% 0.00in /  0mm 0.0 W/m2
22:36 53.1 °F /  11.7 °C 22.5 °F /  -5.3 °C 30.45in /  1031hPa Calm   1.0mph /  1.6km/h 30% 0.00in /  0mm 0.0 W/m2
22:42 52.9 °F /  11.6 °C 22.3 °F /  -5.4 °C 30.45in /  1031hPa SE 2.0mph /  3.2km/h 2.0mph /  3.2km/h 30% 0.00in /  0mm 0.0 W/m2
22:48 52.5 °F /  11.4 °C 21.9 °F /  -5.6 °C 30.45in /  1031hPa Calm     30% 0.00in /  0mm 0.0 W/m2
22:54 52.3 °F /  11.3 °C 21.7 °F /  -5.7 °C 30.45in /  1031hPa Calm     30% 0.00in /  0mm 0.0 W/m2
23:00 52.0 °F /  11.1 °C 21.6 °F /  -5.8 °C 30.45in /  1031hPa Calm   1.0mph /  1.6km/h 30% 0.00in /  0mm 0.0 W/m2
23:06 51.6 °F /  10.9 °C 21.9 °F /  -5.6 °C 30.45in /  1031hPa Calm     31% 0.00in /  0mm 0.0 W/m2
23:12 51.4 °F /  10.8 °C 21.7 °F /  -5.7 °C 30.45in /  1031hPa Calm     31% 0.00in /  0mm 0.0 W/m2
23:18 51.1 °F /  10.6 °C 22.3 °F /  -5.4 °C 30.45in /  1031hPa Calm     32% 0.00in /  0mm 0.0 W/m2
23:24 50.5 °F /  10.3 °C 21.7 °F /  -5.7 °C 30.45in /  1031hPa Calm     32% 0.00in /  0mm 0.0 W/m2
23:30 50.0 °F /  10 °C 22.1 °F /  -5.5 °C 30.45in /  1031hPa Calm     33% 0.00in /  0mm 0.0 W/m2
23:36 49.6 °F /  9.8 °C 22.5 °F /  -5.3 °C 30.45in /  1031hPa Calm     34% 0.00in /  0mm 0.0 W/m2
23:42 49.1 °F /  9.5 °C 21.9 °F /  -5.6 °C 30.45in /  1031hPa Calm     34% 0.00in /  0mm 0.0 W/m2
23:48 48.6 °F /  9.2 °C 22.1 °F /  -5.5 °C 30.45in /  1031hPa Calm     35% 0.00in /  0mm 0.0 W/m2
23:54 48.4 °F /  9.1 °C 22.6 °F /  -5.2 °C 30.45in /  1031hPa Calm     36% 0.00in /  0mm 0.0 W/m2
Olympia, Windhoek, Namibia
Compliments of Weather Underground - 3 mb